Iona Mcallister — WDD4840 — position and weather

sailwx.info

Track history (hours):
 
Tides and Currents Weather Stations Pressure Air Temp Water Temp Dewpoint Dewpoint Depression Visibility Wind Speed Wind Dir Waves Ship Positions

Iona Mcallister

Owner: McAllister Towing & Transportation Co. Inc., Staten Island, NY. More information available from US FCC via Universal Licensing System and Coast Guard Vessel Documentation Center.

Last reported at 2017-Jun-25 00:37 UTC. Time now 2017-Jun-26 05:07 UTC.
Position N 41°47' W 071°22'.

Length 36 m; draft 3 m.

Type: Towing. MMSI: 367149890.

Date/timePositionNaut miles runAvg speedWind from/ knotsBaromVisibWave heightAir tempDewpointWater temp
2017-Jun-25 00:37N 41°47' W 071°22'0 0.1
2017-Jun-25 00:28N 41°47' W 071°22'0 0.1
2017-Jun-24 23:59N 41°47' W 071°22'0 0.0
2017-Jun-24 14:40N 41°47' W 071°22'0 0.0
2017-Jun-24 08:50N 41°47' W 071°23'3 9.1
2017-Jun-24 08:28N 41°44' W 071°22'7 0.6
2017-Jun-23 20:54N 41°37' W 071°24'0 0.1
2017-Jun-23 18:02N 41°37' W 071°24'1 8.7
2017-Jun-23 17:56N 41°37' W 071°23'3 7.7
2017-Jun-23 17:30N 41°40' W 071°21'4 7.5
2017-Jun-23 17:00N 41°44' W 071°22'3 0.7
2017-Jun-23 12:28N 41°47' W 071°23'5 7.9
2017-Jun-23 11:54N 41°43' W 071°20'3 7.2
2017-Jun-23 11:27N 41°40' W 071°22'4 7.1
2017-Jun-23 10:57N 41°37' W 071°24'0 0.6
2017-Jun-23 10:18N 41°37' W 071°24'2 2.4
2017-Jun-23 09:38N 41°35' W 071°24'0 0.5
2017-Jun-23 09:28N 41°35' W 071°24'0 0.0
2017-Jun-23 08:45N 41°35' W 071°24'0 0.0
2017-Jun-23 08:27N 41°35' W 071°24'0 0.0
2017-Jun-23 07:57N 41°35' W 071°24'0 0.0
2017-Jun-23 07:29N 41°35' W 071°24'1 2.2
2017-Jun-23 06:59N 41°36' W 071°24'4 8.0
2017-Jun-23 06:30N 41°40' W 071°22'4 7.3
2017-Jun-23 06:00N 41°43' W 071°21'4 0.6
2017-Jun-22 23:05N 41°47' W 071°22'1 8.8
2017-Jun-22 22:59N 41°46' W 071°22'4 8.9
2017-Jun-22 22:30N 41°42' W 071°20'6 8.8
2017-Jun-22 21:47N 41°37' W 071°24'2 0.1
2017-Jun-22 08:06N 41°35' W 071°24'0 0.0
2017-Jun-22 08:00N 41°35' W 071°24'0 0.0
2017-Jun-22 07:25N 41°35' W 071°24'0 0.0
2017-Jun-22 06:57N 41°35' W 071°24'0 0.0
2017-Jun-22 06:30N 41°35' W 071°24'0 0.0
2017-Jun-22 06:00N 41°35' W 071°24'0 0.0
2017-Jun-22 05:30N 41°35' W 071°24'0 0.0
2017-Jun-22 05:00N 41°35' W 071°24'0 0.0
2017-Jun-22 04:30N 41°35' W 071°24'0 0.0
2017-Jun-22 04:00N 41°35' W 071°24'0 0.0
2017-Jun-22 03:30N 41°35' W 071°24'0 0.0
2017-Jun-22 02:58N 41°35' W 071°24'0 0.0
2017-Jun-22 02:30N 41°35' W 071°24'0 0.0
2017-Jun-22 01:57N 41°35' W 071°24'0 0.0
2017-Jun-22 01:30N 41°35' W 071°24'3 5.6
2017-Jun-22 01:00N 41°38' W 071°22'5 9.2
2017-Jun-22 00:31N 41°42' W 071°20'5 9.2
2017-Jun-21 23:59N 41°47' W 071°22'1 0.1
2017-Jun-21 13:23N 41°47' W 071°22'0 0.4
2017-Jun-21 13:00N 41°47' W 071°22'0 0.0
2017-Jun-20 07:14N 41°47' W 071°22'3 9.6
2017-Jun-20 06:58N 41°44' W 071°22'8 0.2
2017-Jun-18 20:08N 41°36' W 071°24'5 0.1
2017-Jun-17 12:02N 41°38' W 071°18'3 8.1
2017-Jun-17 11:43N 41°40' W 071°19'2 7.5
2017-Jun-17 11:30N 41°42' W 071°19'4 7.8
2017-Jun-17 10:59N 41°45' W 071°22'3 0.3
2017-Jun-17 01:56N 41°48' W 071°23'1 0.1
2017-Jun-16 20:12N 41°47' W 071°22'0 0.0
2017-Jun-16 19:56N 41°47' W 071°22'0 0.0
2017-Jun-16 13:19N 41°47' W 071°22'0 0.7
2017-Jun-16 13:00N 41°47' W 071°22'0 0.1
2017-Jun-16 12:30N 41°47' W 071°22'0 0.0
2017-Jun-16 04:25N 41°47' W 071°23'3 7.7
2017-Jun-16 04:00N 41°44' W 071°22'3 6.8
2017-Jun-16 03:30N 41°41' W 071°21'4 7.1
2017-Jun-16 02:53N 41°37' W 071°24'1 0.0
2017-Jun-15 14:51N 41°37' W 071°24'2 2.6
2017-Jun-15 14:00N 41°38' W 071°22'4 7.9
2017-Jun-15 13:30N 41°42' W 071°20'6 0.6
2017-Jun-15 04:29N 41°47' W 071°23'1 1.1
2017-Jun-15 04:00N 41°47' W 071°22'  
Track history (hours):
 
Tides and Currents Weather Stations Pressure Air Temp Water Temp Dewpoint Dewpoint Depression Visibility Wind Speed Wind Dir Waves Ship Positions

Iona Mcallister

Owner: McAllister Towing & Transportation Co. Inc., Staten Island, NY. More information available from US FCC via Universal Licensing System and Coast Guard Vessel Documentation Center.

Last reported at 2017-Jun-25 00:37 UTC. Time now 2017-Jun-26 05:07 UTC.
Position N 41°47' W 071°22'.

Length 36 m; draft 3 m.

Type: Towing. MMSI: 367149890.

Date/timePositionNaut miles runAvg speedWind from/ knotsBaromVisibWave heightAir tempDewpointWater temp
2017-Jun-25 00:37N 41°47' W 071°22'0 0.1
2017-Jun-25 00:28N 41°47' W 071°22'0 0.1
2017-Jun-24 23:59N 41°47' W 071°22'0 0.0
2017-Jun-24 14:40N 41°47' W 071°22'0 0.0
2017-Jun-24 08:50N 41°47' W 071°23'3 9.1
2017-Jun-24 08:28N 41°44' W 071°22'7 0.6
2017-Jun-23 20:54N 41°37' W 071°24'0 0.1
2017-Jun-23 18:02N 41°37' W 071°24'1 8.7
2017-Jun-23 17:56N 41°37' W 071°23'3 7.7
2017-Jun-23 17:30N 41°40' W 071°21'4 7.5
2017-Jun-23 17:00N 41°44' W 071°22'3 0.7
2017-Jun-23 12:28N 41°47' W 071°23'5 7.9
2017-Jun-23 11:54N 41°43' W 071°20'3 7.2
2017-Jun-23 11:27N 41°40' W 071°22'4 7.1
2017-Jun-23 10:57N 41°37' W 071°24'0 0.6
2017-Jun-23 10:18N 41°37' W 071°24'2 2.4
2017-Jun-23 09:38N 41°35' W 071°24'0 0.5
2017-Jun-23 09:28N 41°35' W 071°24'0 0.0
2017-Jun-23 08:45N 41°35' W 071°24'0 0.0
2017-Jun-23 08:27N 41°35' W 071°24'0 0.0
2017-Jun-23 07:57N 41°35' W 071°24'0 0.0
2017-Jun-23 07:29N 41°35' W 071°24'1 2.2
2017-Jun-23 06:59N 41°36' W 071°24'4 8.0
2017-Jun-23 06:30N 41°40' W 071°22'4 7.3
2017-Jun-23 06:00N 41°43' W 071°21'4 0.6
2017-Jun-22 23:05N 41°47' W 071°22'1 8.8
2017-Jun-22 22:59N 41°46' W 071°22'4 8.9
2017-Jun-22 22:30N 41°42' W 071°20'6 8.8
2017-Jun-22 21:47N 41°37' W 071°24'2 0.1
2017-Jun-22 08:06N 41°35' W 071°24'0 0.0
2017-Jun-22 08:00N 41°35' W 071°24'0 0.0
2017-Jun-22 07:25N 41°35' W 071°24'0 0.0
2017-Jun-22 06:57N 41°35' W 071°24'0 0.0
2017-Jun-22 06:30N 41°35' W 071°24'0 0.0
2017-Jun-22 06:00N 41°35' W 071°24'0 0.0
2017-Jun-22 05:30N 41°35' W 071°24'0 0.0
2017-Jun-22 05:00N 41°35' W 071°24'0 0.0
2017-Jun-22 04:30N 41°35' W 071°24'0 0.0
2017-Jun-22 04:00N 41°35' W 071°24'0 0.0
2017-Jun-22 03:30N 41°35' W 071°24'0 0.0
2017-Jun-22 02:58N 41°35' W 071°24'0 0.0
2017-Jun-22 02:30N 41°35' W 071°24'0 0.0
2017-Jun-22 01:57N 41°35' W 071°24'0 0.0
2017-Jun-22 01:30N 41°35' W 071°24'3 5.6
2017-Jun-22 01:00N 41°38' W 071°22'5 9.2
2017-Jun-22 00:31N 41°42' W 071°20'5 9.2
2017-Jun-21 23:59N 41°47' W 071°22'1 0.1
2017-Jun-21 13:23N 41°47' W 071°22'0 0.4
2017-Jun-21 13:00N 41°47' W 071°22'0 0.0
2017-Jun-20 07:14N 41°47' W 071°22'3 9.6
2017-Jun-20 06:58N 41°44' W 071°22'8 0.2
2017-Jun-18 20:08N 41°36' W 071°24'5 0.1
2017-Jun-17 12:02N 41°38' W 071°18'3 8.1
2017-Jun-17 11:43N 41°40' W 071°19'2 7.5
2017-Jun-17 11:30N 41°42' W 071°19'4 7.8
2017-Jun-17 10:59N 41°45' W 071°22'3 0.3
2017-Jun-17 01:56N 41°48' W 071°23'1 0.1
2017-Jun-16 20:12N 41°47' W 071°22'0 0.0
2017-Jun-16 19:56N 41°47' W 071°22'0 0.0
2017-Jun-16 13:19N 41°47' W 071°22'0 0.7
2017-Jun-16 13:00N 41°47' W 071°22'0 0.1
2017-Jun-16 12:30N 41°47' W 071°22'0 0.0
2017-Jun-16 04:25N 41°47' W 071°23'3 7.7
2017-Jun-16 04:00N 41°44' W 071°22'3 6.8
2017-Jun-16 03:30N 41°41' W 071°21'4 7.1
2017-Jun-16 02:53N 41°37' W 071°24'1 0.0
2017-Jun-15 14:51N 41°37' W 071°24'2 2.6
2017-Jun-15 14:00N 41°38' W 071°22'4 7.9
2017-Jun-15 13:30N 41°42' W 071°20'6 0.6
2017-Jun-15 04:29N 41°47' W 071°23'1 1.1
2017-Jun-15 04:00N 41°47' W 071°22'  

Dump ship's entire track history